Ana Sayfa
METAR-TAF:

METAR-TAF

Havaalanları :

Camp Mabry

Austin, Teksas, Amerika Birleşik Devletleri

Enlem: 30-19N, Boylam: 097-46W, yükseklik: 200 m

Güncel hava durumu gözlemi

Rapor saat 12:25 UTC de 17 dakika önce yapıldı.
Sakin rüzgar
Sıcaklık 23°C
Nem 83%
Basınç 1019 hPa
Görüş mesafesi: 2.0 km
1100 ft yükseklikte parçalı çok bulutlu
2300 ft yükseklikte parçalı çok bulutlu
3500 ft yükseklikte çok bulutlu
Toz Pusu

METAR: KATT 261225Z AUTO 00000KT 1 1/4SM HZ BKN011 BKN023 OVC035 23/20 A3009 RMK AO2 T02330200

Saat: 07:42 (12:42 UTC)


TAF: eksik

4.000'den fazla havaalanı için hava durumu gözlemleri ve tahminleri (METAR ve TAF raporları).

Kullanılabilir istasyonlar harita üzerinde sarı ve kırmızı noktalarla gösterilir.

İstasyonun adını görmek için fareyi noktanın üzerinde gezdirin.

Sonrasında hava gözlem ve tahminlerini görmek için tıklayın.

Haritayı değiştirmek için: yaklaştırmak için siyah artı işaretli yeşil düğmeye ve uzaklaştırmak için de eksi işaretli düğmeye hızla tıklayın; bitişik haritalar için yeşil okları kullanın.


METAR-TAF: